Time;durP1;ratioP1;P1;durP2;ratioP2;P2;SDS_P1;SDS_P2;PMS_P1;PMS_P2;Temp;Humidity;BMP_temperature;BMP_pressure;BME280_temperature;BME280_humidity;BME280_pressure;Samples;Min_cycle;Max_cycle;Signal;HPM_P1;HPM_P2
2022/03/02 00:01:09;;;;;;;56.03;33.47;;;;;;;;;;4452759;32;20124;-74
2022/03/02 00:03:34;;;;;;;55.20;34.03;;;;;;;;;;4456702;32;20399;-73
2022/03/02 00:05:59;;;;;;;;;;;;;;;;;;4451536;32;20060;-73
2022/03/02 00:08:25;;;;;;;55.72;33.17;;;;;;;;;;4450634;32;19943;-73
2022/03/02 00:10:50;;;;;;;;;;;;;;;;;;4449200;32;20063;-73
2022/03/02 00:13:15;;;;;;;48.95;32.70;;;;;;;;;;4447979;32;19943;-73
2022/03/02 00:15:40;;;;;;;;;;;;;;;;;;4447654;32;20164;-73
2022/03/02 00:18:05;;;;;;;53.58;33.15;;;;;;;;;;4447874;32;19937;-73
2022/03/02 00:20:30;;;;;;;;;;;;;;;;;;4447415;32;20030;-73
2022/03/02 00:22:55;;;;;;;49.06;32.20;;;;;;;;;;4446651;32;19968;-73
2022/03/02 00:25:21;;;;;;;;;;;;;;;;;;4446031;32;20339;-73
2022/03/02 00:27:46;;;;;;;54.22;32.95;;;;;;;;;;4435047;32;19968;-73
2022/03/02 00:30:11;;;;;;;;;;;;;;;;;;4448455;32;20113;-73
2022/03/02 00:32:37;;;;;;;51.13;32.10;;;;;;;;;;4447947;32;19952;-73
2022/03/02 00:35:02;;;;;;;;;;;;;;;;;;4450330;32;20074;-73
2022/03/02 00:37:27;;;;;;;49.20;31.10;;;;;;;;;;4447897;32;20219;-73
2022/03/02 00:39:52;;;;;;;;;;;;;;;;;;4448132;32;20050;-73
2022/03/02 00:42:17;;;;;;;47.03;30.65;;;;;;;;;;4447844;32;19943;-73
2022/03/02 00:44:42;;;;;;;47.80;32.50;;;;;;;;;;4447750;32;20117;-72
2022/03/02 00:47:07;;;;;;;;;;;;;;;;;;4432855;32;20359;-74
2022/03/02 00:49:33;;;;;;;45.00;30.88;;;;;;;;;;4449114;32;19969;-73
2022/03/02 00:51:59;;;;;;;;;;;;;;;;;;4448186;32;20022;-73
2022/03/02 00:54:24;;;;;;;48.90;32.42;;;;;;;;;;4433192;32;19936;-73
2022/03/02 00:56:49;;;;;;;;;;;;;;;;;;4448160;32;20021;-73
2022/03/02 00:59:14;;;;;;;53.70;31.52;;;;;;;;;;4446553;32;20409;-73
2022/03/02 01:01:39;;;;;;;;;;;;;;;;;;4447972;32;20025;-72
2022/03/02 01:04:07;;;;;;;48.42;30.65;;;;;;;;;;4447669;32;19983;-73
2022/03/02 01:06:32;;;;;;;49.38;29.70;;;;;;;;;;4433155;32;20407;-72
2022/03/02 01:08:57;;;;;;;;;;;;;;;;;;4449462;32;20021;-74
2022/03/02 01:11:23;;;;;;;46.50;29.92;;;;;;;;;;4433384;32;19929;-74
2022/03/02 01:13:48;;;;;;;;;;;;;;;;;;4447519;32;20453;-71
2022/03/02 01:16:14;;;;;;;48.67;29.73;;;;;;;;;;4447333;32;19932;-72
2022/03/02 01:18:39;;;;;;;;;;;;;;;;;;4447596;32;20052;-72
2022/03/02 01:21:04;;;;;;;52.62;32.10;;;;;;;;;;4451155;32;19959;-73
2022/03/02 01:23:29;;;;;;;;;;;;;;;;;;4449723;32;20148;-71
2022/03/02 01:25:55;;;;;;;48.80;29.48;;;;;;;;;;4448923;32;19998;-72
2022/03/02 01:28:20;;;;;;;;;;;;;;;;;;4447910;32;20199;-72
2022/03/02 01:30:45;;;;;;;48.15;27.80;;;;;;;;;;4447881;32;19980;-72
2022/03/02 01:33:10;;;;;;;;;;;;;;;;;;4447732;32;20025;-72
2022/03/02 01:35:35;;;;;;;45.88;28.27;;;;;;;;;;4447975;32;19940;-72
2022/03/02 01:38:00;;;;;;;;;;;;;;;;;;4456108;26;20133;-83
2022/03/02 01:40:25;;;;;;;44.20;27.75;;;;;;;;;;4419871;32;19941;-81
2022/03/02 01:42:51;;;;;;;;;;;;;;;;;;4419407;32;20587;-81
2022/03/02 01:45:17;;;;;;;44.35;28.67;;;;;;;;;;4419969;32;19953;-82
2022/03/02 01:47:42;;;;;;;41.90;27.58;;;;;;;;;;4419128;32;20052;-81
2022/03/02 01:50:07;;;;;;;;;;;;;;;;;;4420011;32;20058;-80
2022/03/02 01:52:32;;;;;;;45.70;28.52;;;;;;;;;;4419128;32;19944;-81
2022/03/02 01:54:57;;;;;;;;;;;;;;;;;;4420007;32;20057;-81
2022/03/02 01:57:23;;;;;;;37.88;25.70;;;;;;;;;;4421286;32;20073;-82
2022/03/02 01:59:48;;;;;;;;;;;;;;;;;;4421468;32;20414;-81
2022/03/02 02:02:13;;;;;;;42.90;27.75;;;;;;;;;;4419146;32;20367;-82
2022/03/02 02:04:38;;;;;;;;;;;;;;;;;;4419636;32;20075;-81
2022/03/02 02:07:03;;;;;;;41.53;27.67;;;;;;;;;;4419789;32;19951;-81
2022/03/02 02:09:29;;;;;;;;;;;;;;;;;;4421074;32;20089;-81
2022/03/02 02:11:54;;;;;;;42.15;28.25;;;;;;;;;;4419051;32;20322;-81
2022/03/02 02:14:19;;;;;;;;;;;;;;;;;;4419039;32;20067;-82
2022/03/02 02:16:44;;;;;;;43.42;29.02;;;;;;;;;;4418923;32;20325;-81
2022/03/02 02:19:10;;;;;;;;;;;;;;;;;;4421064;32;20018;-82
2022/03/02 02:21:35;;;;;;;42.47;27.05;;;;;;;;;;4418912;32;19937;-81
2022/03/02 02:24:00;;;;;;;;;;;;;;;;;;4419813;32;20022;-81
2022/03/02 02:26:25;;;;;;;43.22;29.17;;;;;;;;;;4420007;32;19937;-82
2022/03/02 02:28:51;;;;;;;;;;;;;;;;;;4421048;32;20037;-81
2022/03/02 02:31:16;;;;;;;46.03;29.48;;;;;;;;;;4419683;32;19933;-81
2022/03/02 02:33:42;;;;;;;;;;;;;;;;;;4421734;32;20121;-81
2022/03/02 02:36:07;;;;;;;41.92;28.30;;;;;;;;;;4421740;32;19964;-81
2022/03/02 02:38:32;;;;;;;;;;;;;;;;;;4413363;32;20034;-82
2022/03/02 02:40:59;;;;;;;47.90;29.45;;;;;;;;;;4408102;32;19968;-81
2022/03/02 02:43:25;;;;;;;43.72;28.73;;;;;;;;;;4406594;32;20146;-81
2022/03/02 02:45:50;;;;;;;;;;;;;;;;;;4407368;32;20453;-81
2022/03/02 02:48:15;;;;;;;47.47;30.50;;;;;;;;;;4407535;32;19980;-81
2022/03/02 02:50:40;;;;;;;;;;;;;;;;;;4407592;32;20045;-81
2022/03/02 02:53:07;;;;;;;50.55;30.42;;;;;;;;;;4407730;32;19934;-81
2022/03/02 02:55:33;;;;;;;44.53;30.42;;;;;;;;;;4416568;32;20386;-81
2022/03/02 02:57:58;;;;;;;;;;;;;;;;;;4417854;32;20054;-81
2022/03/02 03:00:25;;;;;;;47.70;29.63;;;;;;;;;;4407623;32;19984;-81
2022/03/02 03:02:50;;;;;;;47.97;31.10;;;;;;;;;;4407900;32;20122;-81
2022/03/02 03:05:16;;;;;;;;;;;;;;;;;;4408207;32;20048;-82
2022/03/02 03:07:41;;;;;;;55.50;31.65;;;;;;;;;;4405800;32;19937;-81
2022/03/02 03:10:06;;;;;;;;;;;;;;;;;;4390973;32;20053;-81
2022/03/02 03:12:32;;;;;;;45.75;29.12;;;;;;;;;;4391521;32;20297;-81
2022/03/02 03:14:58;;;;;;;47.65;31.08;;;;;;;;;;4399937;32;20057;-81
2022/03/02 03:17:23;;;;;;;;;;;;;;;;;;4406285;32;20328;-81
2022/03/02 03:19:48;;;;;;;52.72;31.02;;;;;;;;;;4406718;32;20404;-81
2022/03/02 03:22:13;;;;;;;;;;;;;;;;;;4408235;32;20129;-81
2022/03/02 03:24:39;;;;;;;47.28;30.35;;;;;;;;;;4406802;32;20313;-81
2022/03/02 03:27:04;;;;;;;;;;;;;;;;;;4408609;32;20153;-81
2022/03/02 03:29:29;;;;;;;53.35;30.80;;;;;;;;;;4406653;32;20040;-81
2022/03/02 03:31:54;;;;;;;;;;;;;;;;;;4407155;32;20434;-81
2022/03/02 03:34:19;;;;;;;49.80;29.25;;;;;;;;;;4408201;32;19971;-81
2022/03/02 03:36:44;;;;;;;;;;;;;;;;;;4407701;32;20075;-80
2022/03/02 03:39:09;;;;;;;44.25;27.90;;;;;;;;;;4406763;32;19949;-81
2022/03/02 03:41:35;;;;;;;;;;;;;;;;;;4407596;32;20022;-81
2022/03/02 03:44:00;;;;;;;49.92;30.17;;;;;;;;;;4406999;32;19938;-80
2022/03/02 03:46:25;;;;;;;;;;;;;;;;;;4405656;32;20042;-81
2022/03/02 03:48:50;;;;;;;45.83;29.85;;;;;;;;;;4405734;32;20086;-82
2022/03/02 03:51:16;;;;;;;;;;;;;;;;;;4407055;32;20074;-81
2022/03/02 03:53:41;;;;;;;49.60;29.75;;;;;;;;;;4406687;32;20296;-81
2022/03/02 03:56:06;;;;;;;;;;;;;;;;;;4405361;32;20498;-81
2022/03/02 03:58:31;;;;;;;50.85;30.37;;;;;;;;;;4405599;32;20016;-82
2022/03/02 04:00:58;;;;;;;;;;;;;;;;;;4407511;32;20030;-81
2022/03/02 04:03:23;;;;;;;45.25;28.65;;;;;;;;;;4420816;32;19929;-82
2022/03/02 04:05:49;;;;;;;;;;;;;;;;;;4420672;32;20064;-81
2022/03/02 04:08:15;;;;;;;44.78;27.60;;;;;;;;;;4418523;32;19953;-81
2022/03/02 04:10:40;;;;;;;;;;;;;;;;;;4405947;32;20026;-80
2022/03/02 04:13:05;;;;;;;47.05;29.25;;;;;;;;;;4405480;32;20285;-82
2022/03/02 04:15:30;;;;;;;;;;;;;;;;;;4406615;32;20026;-81
2022/03/02 04:17:55;;;;;;;47.50;28.83;;;;;;;;;;4406548;32;20273;-82
2022/03/02 04:20:21;;;;;;;;;;;;;;;;;;4408276;32;20022;-81
2022/03/02 04:22:46;;;;;;;43.38;28.52;;;;;;;;;;4406113;32;19940;-82
2022/03/02 04:25:11;;;;;;;;;;;;;;;;;;4407750;32;20332;-80
2022/03/02 04:27:36;;;;;;;43.35;27.98;;;;;;;;;;4407309;32;20356;-81
2022/03/02 04:30:02;;;;;;;;;;;;;;;;;;4408154;32;20209;-81
2022/03/02 04:32:27;;;;;;;46.13;29.00;;;;;;;;;;4408429;32;19933;-81
2022/03/02 04:34:52;;;;;;;;;;;;;;;;;;4407432;32;20083;-81
2022/03/02 04:37:18;;;;;;;49.20;29.73;;;;;;;;;;4409076;32;19965;-82
2022/03/02 04:39:43;;;;;;;;;;;;;;;;;;4410548;32;20030;-81
2022/03/02 04:42:08;;;;;;;47.20;30.42;;;;;;;;;;4411010;32;19972;-82
2022/03/02 04:44:33;;;;;;;;;;;;;;;;;;4413087;32;20019;-80
2022/03/02 04:46:58;;;;;;;48.15;29.63;;;;;;;;;;4413196;32;19965;-80
2022/03/02 04:49:23;;;;;;;;;;;;;;;;;;4411749;32;20172;-81
2022/03/02 04:51:51;;;;;;;49.70;29.35;;;;;;;;;;4410267;32;19981;-78
2022/03/02 04:57:02;;;;;;;52.92;29.92;;;;;;;;;;4409139;32;20103;-81
2022/03/02 04:59:27;;;;;;;43.75;28.87;;;;;;;;;;4408917;32;20073;-82
2022/03/02 05:01:55;;;;;;;;;;;;;;;;;;4408958;32;20455;-81
2022/03/02 05:04:20;;;;;;;43.47;27.08;;;;;;;;;;4410877;32;19945;-82
2022/03/02 05:06:45;;;;;;;;;;;;;;;;;;4406121;32;20056;-80
2022/03/02 05:09:10;;;;;;;46.83;29.42;;;;;;;;;;4407014;32;19945;-82
2022/03/02 05:11:36;;;;;;;;;;;;;;;;;;4406646;32;20424;-81
2022/03/02 05:14:01;;;;;;;39.20;26.33;;;;;;;;;;4405823;32;19971;-82
2022/03/02 05:16:26;;;;;;;;;;;;;;;;;;4406934;32;20235;-81
2022/03/02 05:18:51;;;;;;;46.15;28.38;;;;;;;;;;4405680;32;19982;-80
2022/03/02 05:21:16;;;;;;;;;;;;;;;;;;4406131;32;20034;-79
2022/03/02 05:23:42;;;;;;;43.87;27.00;;;;;;;;;;4405498;32;19941;-81
2022/03/02 05:26:07;;;;;;;;;;;;;;;;;;4405957;32;20031;-81
2022/03/02 05:28:32;;;;;;;43.00;26.70;;;;;;;;;;4404802;32;20024;-81
2022/03/02 05:30:57;;;;;;;;;;;;;;;;;;4404325;32;20126;-81
2022/03/02 05:33:22;;;;;;;43.33;29.42;;;;;;;;;;4406000;32;19949;-81
2022/03/02 05:35:47;;;;;;;;;;;;;;;;;;4405537;32;20231;-81
2022/03/02 05:38:13;;;;;;;43.47;25.65;;;;;;;;;;4404588;32;20251;-81
2022/03/02 05:40:38;;;;;;;;;;;;;;;;;;4404023;32;20060;-80
2022/03/02 05:43:03;;;;;;;38.25;26.40;;;;;;;;;;4404982;32;19967;-80
2022/03/02 05:45:28;;;;;;;;;;;;;;;;;;4404092;32;20452;-80
2022/03/02 05:47:53;;;;;;;42.10;26.10;;;;;;;;;;4403974;32;19979;-81
2022/03/02 05:50:18;;;;;;;;;;;;;;;;;;4405496;32;20114;-80
2022/03/02 05:52:43;;;;;;;42.75;26.80;;;;;;;;;;4404866;32;19933;-81
2022/03/02 05:55:09;;;;;;;;;;;;;;;;;;4404642;32;20030;-81
2022/03/02 05:57:34;;;;;;;44.45;27.80;;;;;;;;;;4403794;32;19938;-81
2022/03/02 05:59:59;;;;;;;;;;;;;;;;;;4404139;32;20081;-81
2022/03/02 06:02:25;;;;;;;42.95;27.23;;;;;;;;;;4403695;32;19944;-82
2022/03/02 06:04:50;;;;;;;;;;;;;;;;;;4404729;32;20126;-81
2022/03/02 06:07:15;;;;;;;41.65;26.60;;;;;;;;;;4403197;32;19945;-82
2022/03/02 06:09:40;;;;;;;;;;;;;;;;;;4408167;32;20048;-81
2022/03/02 06:12:05;;;;;;;46.92;25.65;;;;;;;;;;4408006;32;19948;-81
2022/03/02 06:14:31;;;;;;;;;;;;;;;;;;4408852;32;20026;-82
2022/03/02 06:16:56;;;;;;;48.58;26.15;;;;;;;;;;4406771;32;19942;-81
2022/03/02 06:19:21;;;;;;;;;;;;;;;;;;4407511;32;20029;-80
2022/03/02 06:21:47;;;;;;;44.75;27.10;;;;;;;;;;4406881;32;19975;-81
2022/03/02 06:24:14;;;;;;;42.75;26.83;;;;;;;;;;4406698;32;20126;-82
2022/03/02 06:26:39;;;;;;;42.33;26.80;;;;;;;;;;4407315;32;20026;-81
2022/03/02 06:29:04;;;;;;;;;;;;;;;;;;4408373;32;20022;-82
2022/03/02 06:31:31;;;;;;;42.97;25.90;;;;;;;;;;4408456;32;20008;-80
2022/03/02 06:33:56;;;;;;;43.42;26.62;;;;;;;;;;4407701;32;20100;-81
2022/03/02 06:36:22;;;;;;;;;;;;;;;;;;4407494;32;20022;-81
2022/03/02 06:38:47;;;;;;;52.25;26.20;;;;;;;;;;4407537;32;20342;-81
2022/03/02 06:41:12;;;;;;;;;;;;;;;;;;4406709;32;20134;-80
2022/03/02 06:44:00;;;;;;;47.47;28.02;;;;;;;;;;4406243;32;19937;-81
2022/03/02 06:46:34;;;;;;;42.80;27.48;;;;;;;;;;4408076;32;20057;-82
2022/03/02 06:49:01;;;;;;;43.65;27.90;;;;;;;;;;4406084;32;20454;-81
2022/03/02 06:51:28;;;;;;;49.30;28.80;;;;;;;;;;4408125;32;20409;-80
2022/03/02 06:53:54;;;;;;;57.78;27.42;;;;;;;;;;4408347;32;20047;-82
2022/03/02 06:56:19;;;;;;;;;;;;;;;;;;4407120;32;20368;-81
2022/03/02 06:58:49;;;;;;;48.65;27.45;;;;;;;;;;4398380;32;19952;-80
2022/03/02 07:01:17;;;;;;;40.50;26.37;;;;;;;;;;4396160;32;20022;-81
2022/03/02 07:03:45;;;;;;;42.60;26.77;;;;;;;;;;4399070;32;20045;-79
2022/03/02 07:06:11;;;;;;;47.80;27.00;;;;;;;;;;4403630;32;20022;-81
2022/03/02 07:08:36;;;;;;;54.72;28.15;;;;;;;;;;4399167;32;20064;-80
2022/03/02 07:11:01;;;;;;;;;;;;;;;;;;4401787;32;20404;-81
2022/03/02 07:13:30;;;;;;;39.33;25.67;;;;;;;;;;4392181;32;19956;-82
2022/03/02 07:15:58;;;;;;;42.20;26.15;;;;;;;;;;4398065;32;20030;-80
2022/03/02 07:18:23;;;;;;;50.90;27.55;;;;;;;;;;4398190;32;20141;-81
2022/03/02 07:20:48;;;;;;;;;;;;;;;;;;4402205;32;20062;-80
2022/03/02 07:23:15;;;;;;;47.80;23.83;;;;;;;;;;4395889;32;20327;-80
2022/03/02 07:25:42;;;;;;;54.40;26.15;;;;;;;;;;4402604;32;20145;-82
2022/03/02 07:28:09;;;;;;;40.25;25.58;;;;;;;;;;4405230;32;20022;-81
2022/03/02 07:30:34;;;;;;;56.28;28.52;;;;;;;;;;4406360;32;20450;-80
2022/03/02 07:32:59;;;;;;;;;;;;;;;;;;4407650;32;20093;-80
2022/03/02 07:35:25;;;;;;;45.78;24.08;;;;;;;;;;4406627;32;19972;-81
2022/03/02 07:37:50;;;;;;;;;;;;;;;;;;4405831;32;20038;-82
2022/03/02 07:40:15;;;;;;;48.75;26.23;;;;;;;;;;4406538;32;19994;-80
2022/03/02 07:42:41;;;;;;;;;;;;;;;;;;4407608;32;20057;-80
2022/03/02 07:45:06;;;;;;;35.42;22.33;;;;;;;;;;4419047;32;19952;-80
2022/03/02 07:47:32;;;;;;;;;;;;;;;;;;4409992;32;20435;-81
2022/03/02 07:49:57;;;;;;;77.03;28.08;;;;;;;;;;4392622;32;19949;-81
2022/03/02 07:52:23;;;;;;;;;;;;;;;;;;4407050;32;20048;-80
2022/03/02 07:54:50;;;;;;;43.70;25.52;;;;;;;;;;4404985;32;19969;-80
2022/03/02 07:57:16;;;;;;;47.65;26.98;;;;;;;;;;4406922;32;20023;-83
2022/03/02 07:59:41;;;;;;;;;;;;;;;;;;4406198;32;20137;-85
2022/03/02 08:02:08;;;;;;;43.22;25.37;;;;;;;;;;4405151;32;19948;-85
2022/03/02 08:04:34;;;;;;;41.78;24.15;;;;;;;;;;4406055;32;20026;-85
2022/03/02 08:06:59;;;;;;;40.35;23.98;;;;;;;;;;4408601;32;20069;-84
2022/03/02 08:09:25;;;;;;;;;;;;;;;;;;4407853;32;20070;-85
2022/03/02 08:11:50;;;;;;;39.40;24.30;;;;;;;;;;4405565;32;19933;-83
2022/03/02 08:14:18;;;;;;;;;;;;;;;;;;4404962;32;20405;-85
2022/03/02 08:16:45;;;;;;;38.00;23.20;;;;;;;;;;4404987;32;19952;-83
2022/03/02 08:19:11;;;;;;;41.08;25.37;;;;;;;;;;4405756;32;20018;-73
2022/03/02 08:21:36;;;;;;;;;;;;;;;;;;4406535;32;20064;-76
2022/03/02 08:24:06;;;;;;;34.98;23.34;;;;;;;;;;4406019;32;19985;-76
2022/03/02 08:26:34;;;;;;;39.30;22.62;;;;;;;;;;4405689;32;20034;-77
2022/03/02 08:29:07;;;;;;;37.10;23.00;;;;;;;;;;4404967;32;20073;-77
2022/03/02 08:31:35;;;;;;;42.85;21.80;;;;;;;;;;4404556;32;20034;-77
2022/03/02 08:34:00;;;;;;;43.47;23.05;;;;;;;;;;4390499;32;20030;-77
2022/03/02 08:36:26;;;;;;;;;;;;;;;;;;4404300;32;20099;-77
2022/03/02 08:38:52;;;;;;;38.70;21.33;;;;;;;;;;4405168;32;19933;-78
2022/03/02 08:41:20;;;;;;;32.80;21.05;;;;;;;;;;4407242;32;20034;-77
2022/03/02 08:43:46;;;;;;;46.30;21.62;;;;;;;;;;4405045;32;20081;-76
2022/03/02 08:46:11;;;;;;;;;;;;;;;;;;4404668;32;20038;-77
2022/03/02 08:48:36;;;;;;;39.20;20.88;;;;;;;;;;4404921;32;20248;-77
2022/03/02 08:51:01;;;;;;;;;;;;;;;;;;4406426;32;20026;-76
2022/03/02 08:53:26;;;;;;;32.50;18.80;;;;;;;;;;4406412;32;19985;-75
2022/03/02 08:55:51;;;;;;;;;;;;;;;;;;4405802;32;20470;-77
2022/03/02 08:58:17;;;;;;;24.70;16.92;;;;;;;;;;4405750;32;20330;-76
2022/03/02 09:00:42;;;;;;;;;;;;;;;;;;4405993;32;20138;-76
2022/03/02 09:03:10;;;;;;;100.10;25.02;;;;;;;;;;4405958;32;20277;-76
2022/03/02 09:05:35;;;;;;;34.20;16.40;;;;;;;;;;4413725;32;20034;-76
2022/03/02 09:08:00;;;;;;;;;;;;;;;;;;4405732;32;20414;-77
2022/03/02 09:10:26;;;;;;;41.75;19.27;;;;;;;;;;4403783;32;19944;-77
2022/03/02 09:12:51;;;;;;;;;;;;;;;;;;4406593;32;20332;-76
2022/03/02 09:15:16;;;;;;;32.97;18.00;;;;;;;;;;4403771;32;19938;-76
2022/03/02 09:17:42;;;;;;;;;;;;;;;;;;4405911;32;20412;-76
2022/03/02 09:20:08;;;;;;;32.65;16.73;;;;;;;;;;4404540;32;19929;-76
2022/03/02 09:22:35;;;;;;;29.63;17.87;;;;;;;;;;4404113;32;20382;-76
2022/03/02 09:25:01;;;;;;;24.15;14.60;;;;;;;;;;4404666;32;20073;-77
2022/03/02 09:27:27;;;;;;;;;;;;;;;;;;4404603;32;20411;-77
2022/03/02 09:29:53;;;;;;;34.90;15.43;;;;;;;;;;4405562;32;19933;-77
2022/03/02 09:32:18;;;;;;;;;;;;;;;;;;4403676;32;20105;-77
2022/03/02 09:34:49;;;;;;;26.00;15.40;;;;;;;;;;4403249;32;19938;-77
2022/03/02 09:37:15;;;;;;;30.00;14.82;;;;;;;;;;4392828;32;20149;-77
2022/03/02 09:39:40;;;;;;;;;;;;;;;;;;4406613;32;20064;-77
2022/03/02 09:42:10;;;;;;;23.90;14.30;;;;;;;;;;4404568;32;19933;-76
2022/03/02 09:44:40;;;;;;;44.30;16.23;;;;;;;;;;4405045;32;20026;-77
2022/03/02 09:47:07;;;;;;;34.40;15.52;;;;;;;;;;4403440;32;20038;-76
2022/03/02 09:49:34;;;;;;;23.40;15.88;;;;;;;;;;4403694;32;20030;-78
2022/03/02 09:52:19;;;;;;;26.12;15.98;;;;;;;;;;4405497;32;20115;-77
2022/03/02 09:54:45;;;;;;;27.02;15.38;;;;;;;;;;4404931;32;20035;-77
2022/03/02 09:57:10;;;;;;;;;;;;;;;;;;4403004;32;20465;-77
2022/03/02 09:59:37;;;;;;;24.35;14.93;;;;;;;;;;4405153;32;19942;-76
2022/03/02 10:02:07;;;;;;;36.17;16.37;;;;;;;;;;4400316;32;20424;-77
2022/03/02 10:04:33;;;;;;;27.60;16.48;;;;;;;;;;4400346;32;20026;-76
2022/03/02 10:09:45;;;;;;;26.98;15.65;;;;;;;;;;4396528;32;20052;-76
2022/03/02 10:12:11;;;;;;;25.30;15.23;;;;;;;;;;4402843;32;20097;-77
2022/03/02 10:14:36;;;;;;;;;;;;;;;;;;4404977;32;20022;-77
2022/03/02 10:17:02;;;;;;;29.60;15.35;;;;;;;;;;4404604;32;19938;-77
2022/03/02 10:19:27;;;;;;;;;;;;;;;;;;4395902;32;20109;-76
2022/03/02 10:21:54;;;;;;;26.92;15.35;;;;;;;;;;4405274;32;20302;-77
2022/03/02 10:24:20;;;;;;;28.60;15.07;;;;;;;;;;4404012;32;20382;-76
2022/03/02 10:26:45;;;;;;;;;;;;;;;;;;4397247;32;20034;-77
2022/03/02 10:29:12;;;;;;;36.47;16.95;;;;;;;;;;4396972;32;19933;-76
2022/03/02 10:31:42;;;;;;;27.65;15.57;;;;;;;;;;4401166;32;20030;-77
2022/03/02 10:34:15;;;;;;;26.77;15.18;;;;;;;;;;4402789;32;20034;-76
2022/03/02 10:36:45;;;;;;;25.33;15.05;;;;;;;;;;4404248;32;20464;-77
2022/03/02 10:39:19;;;;;;;21.67;14.73;;;;;;;;;;4402602;32;20057;-77
2022/03/02 10:41:45;;;;;;;24.12;15.15;;;;;;;;;;4404694;32;20034;-78
2022/03/02 10:44:10;;;;;;;;;;;;;;;;;;4405221;32;20400;-77
2022/03/02 10:46:40;;;;;;;29.27;15.27;;;;;;;;;;4404040;32;20362;-76
2022/03/02 10:49:09;;;;;;;29.27;16.48;;;;;;;;;;4404862;32;20052;-77
2022/03/02 10:51:35;;;;;;;41.67;17.90;;;;;;;;;;4402927;32;20030;-76
2022/03/02 10:54:00;;;;;;;;;;;;;;;;;;4405445;32;20022;-76
2022/03/02 10:56:26;;;;;;;27.55;14.98;;;;;;;;;;4407193;32;19945;-77
2022/03/02 10:58:51;;;;;;;;;;;;;;;;;;4406608;32;20065;-77
2022/03/02 11:01:17;;;;;;;26.42;15.50;;;;;;;;;;4408212;32;19950;-77
2022/03/02 11:03:42;;;;;;;;;;;;;;;;;;4407005;32;20101;-76
2022/03/02 11:06:07;;;;;;;28.87;16.87;;;;;;;;;;4406445;32;19970;-77
2022/03/02 11:08:32;;;;;;;;;;;;;;;;;;4404946;32;20050;-78
2022/03/02 11:10:58;;;;;;;30.92;15.35;;;;;;;;;;4405243;32;19948;-76
2022/03/02 11:13:23;;;;;;;;;;;;;;;;;;4406755;32;20458;-76
2022/03/02 11:15:51;;;;;;;32.45;16.77;;;;;;;;;;4406800;32;20307;-78
2022/03/02 11:18:17;;;;;;;23.27;15.13;;;;;;;;;;4406583;32;20022;-77
2022/03/02 11:20:53;;;;;;;26.52;16.05;;;;;;;;;;4405234;32;20105;-76
2022/03/02 11:23:22;;;;;;;24.87;15.60;;;;;;;;;;4392550;32;20053;-77
2022/03/02 11:25:51;;;;;;;32.95;16.20;;;;;;;;;;4405241;32;20080;-77
2022/03/02 11:28:18;;;;;;;24.12;15.32;;;;;;;;;;4412462;32;20050;-77
2022/03/02 11:30:51;;;;;;;27.60;16.35;;;;;;;;;;4420475;32;20390;-76
2022/03/02 11:33:20;;;;;;;27.85;15.40;;;;;;;;;;4417140;32;20027;-78
2022/03/02 11:35:46;;;;;;;28.27;15.90;;;;;;;;;;4406198;32;20086;-78
2022/03/02 11:38:12;;;;;;;24.42;16.52;;;;;;;;;;4405657;32;20042;-77
2022/03/02 11:40:42;;;;;;;22.83;14.85;;;;;;;;;;4405640;32;20032;-77
2022/03/02 11:43:21;;;;;;;27.13;16.48;;;;;;;;;;4405387;32;20097;-76
2022/03/02 11:45:46;;;;;;;29.77;16.70;;;;;;;;;;4408869;32;20097;-78
2022/03/02 11:48:13;;;;;;;26.10;16.55;;;;;;;;;;4404822;32;20057;-78
2022/03/02 11:50:58;;;;;;;29.15;16.98;;;;;;;;;;4405524;32;20049;-78
2022/03/02 11:53:28;;;;;;;31.20;16.20;;;;;;;;;;4403994;32;20046;-77
2022/03/02 11:55:54;;;;;;;29.65;15.77;;;;;;;;;;4403937;32;20030;-76
2022/03/02 11:58:19;;;;;;;45.80;18.02;;;;;;;;;;4403549;32;20100;-76
2022/03/02 12:00:44;;;;;;;28.23;16.10;;;;;;;;;;4405630;32;20023;-76
2022/03/02 12:03:09;;;;;;;23.33;14.05;;;;;;;;;;4406430;32;20026;-75
2022/03/02 12:05:35;;;;;;;19.33;14.20;;;;;;;;;;4403947;32;20130;-76
2022/03/02 12:08:04;;;;;;;21.67;15.65;;;;;;;;;;4405733;32;20080;-77
2022/03/02 12:10:30;;;;;;;23.45;14.98;;;;;;;;;;4405053;32;20066;-76
2022/03/02 12:12:57;;;;;;;21.20;15.43;;;;;;;;;;4405301;32;20328;-77
2022/03/02 12:15:24;;;;;;;20.20;14.95;;;;;;;;;;4406063;32;20070;-77
2022/03/02 12:17:49;;;;;;;20.00;14.57;;;;;;;;;;4404302;32;20049;-76
2022/03/02 12:20:19;;;;;;;33.13;15.57;;;;;;;;;;4405408;32;20081;-71
2022/03/02 12:22:48;;;;;;;23.50;14.23;;;;;;;;;;4411631;32;20030;-87
2022/03/02 12:25:21;;;;;;;20.27;13.60;;;;;;;;;;4412024;32;20427;-87
2022/03/02 12:28:00;;;;;;;22.48;15.30;;;;;;;;;;4413808;32;20019;-88
2022/03/02 12:30:33;;;;;;;17.37;13.62;;;;;;;;;;4413247;32;20042;-87
2022/03/02 12:32:59;;;;;;;23.38;12.13;;;;;;;;;;4413798;32;20027;-87
2022/03/02 12:35:25;;;;;;;20.67;11.95;;;;;;;;;;4412836;32;20018;-89
2022/03/02 12:37:54;;;;;;;18.77;12.65;;;;;;;;;;4412058;32;20293;-88
2022/03/02 12:40:30;;;;;;;;;;;;;;;;;;;;;
2022/03/02 12:43:06;;;;;;;22.58;13.15;;;;;;;;;;4412085;32;20034;-90
2022/03/02 12:45:34;;;;;;;17.10;12.83;;;;;;;;;;4412648;32;20023;-89
2022/03/02 12:48:01;;;;;;;27.00;15.02;;;;;;;;;;4410548;32;20117;-89
2022/03/02 12:50:26;;;;;;;20.27;13.50;;;;;;;;;;4415795;32;20022;-91
2022/03/02 12:52:52;;;;;;;19.25;13.02;;;;;;;;;;4419642;32;20427;-89
2022/03/02 12:55:17;;;;;;;24.63;14.15;;;;;;;;;;4419663;32;20041;-88
2022/03/02 12:57:43;;;;;;;18.90;12.32;;;;;;;;;;4416988;32;20183;-86
2022/03/02 13:00:10;;;;;;;18.02;13.45;;;;;;;;;;4415743;32;20045;-87
2022/03/02 13:02:37;;;;;;;21.52;12.68;;;;;;;;;;4416062;32;20019;-88
2022/03/02 13:05:02;;;;;;;20.45;13.82;;;;;;;;;;4418946;32;20030;-87
2022/03/02 13:07:46;;;;;;;21.87;13.85;;;;;;;;;;4419238;32;20026;-87
2022/03/02 13:10:12;;;;;;;18.80;12.37;;;;;;;;;;4419814;32;20036;-87
2022/03/02 13:12:42;;;;;;;20.27;14.15;;;;;;;;;;4421180;32;20102;-86
2022/03/02 13:15:24;;;;;;;20.35;12.70;;;;;;;;;;4415469;32;20092;-90
2022/03/02 13:18:14;;;;;;;20.90;13.23;;;;;;;;;;4408798;32;20026;-89
2022/03/02 13:20:49;;;;;;;16.65;12.25;;;;;;;;;;4407733;32;20081;-85
2022/03/02 13:23:15;;;;;;;22.95;13.70;;;;;;;;;;4408142;32;20026;-87
2022/03/02 13:26:00;;;;;;;17.80;13.07;;;;;;;;;;4407611;32;20034;-89
2022/03/02 13:28:27;;;;;;;19.33;13.88;;;;;;;;;;4408180;32;20049;-87
2022/03/02 13:31:04;;;;;;;19.17;13.30;;;;;;;;;;4407874;32;20101;-87
2022/03/02 13:33:29;;;;;;;19.05;13.65;;;;;;;;;;4407346;32;20123;-87
2022/03/02 13:35:58;;;;;;;20.85;13.70;;;;;;;;;;4407495;32;20021;-88
2022/03/02 13:38:39;;;;;;;22.67;13.30;;;;;;;;;;4395528;32;20038;-90
2022/03/02 13:41:04;;;;;;;21.42;12.57;;;;;;;;;;4408376;32;20347;-85
2022/03/02 13:43:33;;;;;;;18.83;13.82;;;;;;;;;;4407183;32;20045;-87
2022/03/02 13:46:00;;;;;;;25.52;14.43;;;;;;;;;;4407245;32;20022;-86
2022/03/02 13:48:27;;;;;;;21.83;13.15;;;;;;;;;;4408218;32;20092;-89
2022/03/02 13:51:00;;;;;;;20.05;13.65;;;;;;;;;;4407315;32;20042;-87
2022/03/02 13:53:57;;;;;;;24.55;13.95;;;;;;;;;;4407166;32;20148;-88
2022/03/02 13:56:34;;;;;;;19.85;14.48;;;;;;;;;;4396689;32;20445;-86
2022/03/02 13:59:01;;;;;;;18.30;14.25;;;;;;;;;;4407374;32;20463;-86
2022/03/02 14:01:29;;;;;;;22.42;14.25;;;;;;;;;;4405152;32;20392;-86
2022/03/02 14:04:00;;;;;;;18.75;14.57;;;;;;;;;;4406990;32;20022;-85
2022/03/02 14:06:25;;;;;;;20.92;14.57;;;;;;;;;;4405541;32;20023;-86
2022/03/02 14:08:52;;;;;;;26.37;15.45;;;;;;;;;;4405259;32;20048;-85
2022/03/02 14:11:29;;;;;;;20.23;14.68;;;;;;;;;;4405348;32;20464;-86
2022/03/02 14:13:55;;;;;;;20.55;14.57;;;;;;;;;;4407373;32;20461;-88
2022/03/02 14:16:20;;;;;;;19.02;14.48;;;;;;;;;;4406642;32;20027;-86
2022/03/02 14:18:47;;;;;;;31.95;16.08;;;;;;;;;;4404947;32;20408;-85
2022/03/02 14:21:12;;;;;;;22.13;16.00;;;;;;;;;;4405781;32;20023;-85
2022/03/02 14:23:49;;;;;;;21.55;14.77;;;;;;;;;;4405346;32;20075;-86
2022/03/02 14:26:15;;;;;;;37.63;16.27;;;;;;;;;;4406094;32;20075;-87
2022/03/02 14:28:41;;;;;;;18.15;14.27;;;;;;;;;;4405232;32;20023;-85
2022/03/02 14:31:07;;;;;;;22.02;14.57;;;;;;;;;;4407786;32;20045;-84
2022/03/02 14:33:32;;;;;;;20.30;15.05;;;;;;;;;;4407956;32;20026;-83
2022/03/02 14:35:57;;;;;;;24.83;15.27;;;;;;;;;;4409317;32;20419;-84
2022/03/02 14:38:23;;;;;;;18.67;14.77;;;;;;;;;;4411278;32;20031;-84
2022/03/02 14:40:49;;;;;;;18.35;14.07;;;;;;;;;;4411836;32;20034;-85
2022/03/02 14:43:16;;;;;;;19.40;15.20;;;;;;;;;;4410639;32;20064;-85
2022/03/02 14:45:43;;;;;;;18.35;14.20;;;;;;;;;;4409412;32;20093;-84
2022/03/02 14:48:11;;;;;;;28.70;17.35;;;;;;;;;;4407570;32;20097;-85
2022/03/02 14:50:39;;;;;;;20.77;14.15;;;;;;;;;;4408217;32;20074;-86
2022/03/02 14:53:10;;;;;;;21.33;14.00;;;;;;;;;;4407300;32;20041;-86
2022/03/02 14:55:37;;;;;;;26.02;15.75;;;;;;;;;;4397010;32;20030;-86
2022/03/02 14:58:03;;;;;;;27.45;14.65;;;;;;;;;;4407862;32;20022;-84
2022/03/02 15:00:30;;;;;;;32.50;16.08;;;;;;;;;;4408758;32;20423;-86